Nearby METAR Reports


KPVF - Placerville, California, USA
Distance from station: E 5mi, 14km
Updated: 06/17/2024 7:15am
Clear
Clear
 Wind from calm
Wind: Calm
Temperature: 55°F , 13°C
Dew Point: 41°F , 5°C
Humidity: 59%
Barometer: 29.90 inHg , 1012.5 hPa
Clouds: Clear
Visibility: 10 miles , 16 km
2024/06/17 14:15 KPVF 171415Z AUTO 00000KT 10SM CLR 13/05 A2990 RMK AO1
KAUN - Auburn, California, USA
Distance from station: NE 37mi, 14km
Updated: 06/17/2024 7:15am
Clear
Clear
 Wind from calm
Wind: Calm
Temperature: 59°F , 15°C
Dew Point: 39°F , 4°C
Humidity: 48%
Barometer: 29.87 inHg , 1011.5 hPa
Clouds: Clear
Visibility: 10 miles , 16 km
2024/06/17 14:15 KAUN 171415Z AUTO 00000KT 10SM CLR 15/04 A2987 RMK A01
 
KMHR - Mather, California, USA
Distance from station: NNW 30mi, 23km
Updated: 06/17/2024 7:35am
Clear
Clear
 Wind from NNW
Wind: NNW 16 mph , 26 km/h
Temperature: 64°F , 18°C
Dew Point: 37°F , 3°C
Humidity: 37%
Barometer: 29.85 inHg , 1010.8 hPa
Clouds: Clear
Visibility: 10 miles , 16 km
2024/06/17 14:35 KMHR 171435Z AUTO 33014KT 10SM CLR 18/03 A2985 RMK A01
KSAC - Sacramento, California, USA
Distance from station: WNW 45mi, 50km
Updated: 06/17/2024 6:53am
Clear
Clear
 Wind from NNW
Wind: NNW 12 mph , 19 km/h, Gust: 17 mph , 28 km/h
Temperature: 64°F , 18°C
Dew Point: 41°F , 5°C
Humidity: 43%
Barometer: 29.85 inHg , 1010.8 hPa
Clouds: Clear
Visibility: 10 miles , 16 km
2024/06/17 13:53 KSAC 171353Z 33010G15KT 10SM CLR 18/05 A2985 RMK AO2 SLP109 T01780050
 
KSMF - Sacramento Metro, California, USA
Distance from station: NNE 50mi, 51km
Updated: 06/17/2024 6:53am
Partly cloudy
Partly cloudy
 Wind from NW
Wind: NW 7 mph , 11 km/h
Temperature: 63°F , 17°C
Dew Point: 41°F , 5°C
Humidity: 45%
Barometer: 29.86 inHg , 1011.2 hPa
Clouds: Partly cloudy
Visibility: 10 miles , 16 km
Cloud details: Partly cloudy 25000 ft
2024/06/17 13:53 KSMF 171353Z 32006KT 10SM SCT250 17/05 A2986 RMK AO2 SLP109 T01720050
KBAB - Beale AFB - Marysville, California, USA
Distance from station: NW 21mi, 34km
Updated: 06/17/2024 6:55am
Clear
Clear
 Wind from NNW
Wind: NNW 13 mph , 20 km/h
Temperature: 63°F , 17°C
Dew Point: 37°F , 3°C
Humidity: 39%
Barometer: 29.85 inHg , 1010.8 hPa
Clouds: Clear
Visibility: 10 miles , 16 km
2024/06/17 13:55 KBAB 171355Z AUTO 34011KT 10SM CLR 17/03 A2985 RMK AO2 SLP110 T01700029 $
 
KOVE - Oroville, California, USA
Distance from station: ESE 80mi, 43km
Updated: 06/17/2024 6:53am
Clear
Clear
 Wind from NNW
Wind: NNW 10 mph , 17 km/h, Gust: 17 mph , 28 km/h
Temperature: 63°F , 17°C
Dew Point: 37°F , 3°C
Humidity: 39%
Barometer: 29.86 inHg , 1011.2 hPa
Clouds: Clear
Visibility: 10 miles , 16 km
2024/06/17 13:53 KOVE 171353Z AUTO 33009G15KT 10SM CLR 17/03 A2986 RMK AO2 SLP114 T01670033
KRDD - Redding, California, USA
Distance from station: SSE 225mi, 44km
Updated: 06/17/2024 6:53am
Clear
Clear
 Wind from N
Wind: N 15 mph , 24 km/h, Gust: 24 mph , 39 km/h
Temperature: 63°F , 17°C
Dew Point: 32°F , 0°C
Humidity: 32%
Barometer: 29.94 inHg , 1013.9 hPa
Clouds: Clear
Visibility: 10 miles , 16 km
2024/06/17 13:53 KRDD 171353Z 35013G21KT 10SM CLR 17/00 A2994 RMK AO2 SLP132 T01720000
 
KTRK - Tahoe-Truckee, California, USA
Distance from station: NW 60mi, 49km
Updated: 06/17/2024 7:17am
Partly cloudy
Partly cloudy
 Wind from varies
Wind: varies 3 mph , 6 km/h
Temperature: 48°F , 9°C
Dew Point: 34°F , 1°C
Humidity: 58%
Barometer: 29.94 inHg , 1013.9 hPa
Clouds: Partly cloudy
Visibility: 10 miles , 16 km
Cloud details: Partly cloudy 5500 ft
2024/06/17 14:17 KTRK 171417Z VRB03KT 10SM SCT055 09/01 A2994
KTVL - South Lake Tahoe, California, USA
Distance from station: N 45mi, 44km
Updated: 06/17/2024 6:53am
Clear
Clear
 Wind from SSE
Wind: SSE 10 mph , 17 km/h
Temperature: 48°F , 9°C
Wind Chill: 44°F , 7°C
Dew Point: 36°F , 2°C
Humidity: 62%
Barometer: 29.90 inHg , 1012.5 hPa
Clouds: Clear
Visibility: 10 miles , 16 km
2024/06/17 13:53 KTVL 171353Z AUTO 16009KT 10SM CLR 09/02 A2990 RMK AO2 SLP079 T00940022
 
KBLU - EMIGRANT GAP, California, USA
Distance from station: NNW 31mi, 50km
Updated: 06/17/2024 6:52am
Clear
Clear
 Wind from calm
Wind: Calm
Temperature: 46°F , 8°C
Dew Point: 37°F , 3°C
Humidity: 71%
Barometer: 29.93 inHg , 1013.5 hPa
Clouds: Clear
Visibility: 10 miles , 16 km
2024/06/17 13:52 KBLU 171352Z AUTO 00000KT 10SM CLR 08/03 A2993 RMK AO2 SLP083 T00780033 $
KACV - Eureka, California, USA
Distance from station: ENE 387mi, 19km
Updated: 06/17/2024 6:53am
Clear
Clear
 Wind from calm
Wind: Calm
Temperature: 46°F , 8°C
Dew Point: 45°F , 7°C
Humidity: 93%
Barometer: 30.04 inHg , 1017.3 hPa
Clouds: Clear
Visibility: 10 miles , 16 km
2024/06/17 13:53 KACV 171353Z AUTO 00000KT 10SM CLR 08/07 A3004 RMK AO2 SLP177 T00830067